Time;durP1;ratioP1;P1;durP2;ratioP2;P2;SDS_P1;SDS_P2;PMS_P1;PMS_P2;Temp;Humidity;BMP_temperature;BMP_pressure;BME280_temperature;BME280_humidity;BME280_pressure;Samples;Min_cycle;Max_cycle;Signal;HPM_P1;HPM_P2
2023/04/22 00:00:12;;;;;;;1.27;0.70;;;;;;;5.84;56.56;101801.53;5109001;28;20044;-75
2023/04/22 00:02:39;;;;;;;2.28;0.70;;;;;;;5.81;56.48;101792.00;5106146;28;20044;-75
2023/04/22 00:05:07;;;;;;;1.30;0.95;;;;;;;5.79;56.50;101790.22;5107630;28;20048;-76
2023/04/22 00:07:35;;;;;;;1.23;0.77;;;;;;;5.76;56.56;101784.97;5106289;28;20488;-76
2023/04/22 00:10:02;;;;;;;1.23;0.50;;;;;;;5.72;56.80;101783.16;5106794;28;20518;-75
2023/04/22 00:12:29;;;;;;;0.80;0.70;;;;;;;5.69;56.62;101783.97;5107283;28;20043;-75
2023/04/22 00:14:56;;;;;;;1.42;0.88;;;;;;;5.66;56.95;101780.47;5110481;27;20373;-75
2023/04/22 00:17:23;;;;;;;1.83;0.80;;;;;;;5.64;56.77;101783.03;5113566;27;20420;-75
2023/04/22 00:19:50;;;;;;;2.55;0.60;;;;;;;5.60;56.77;101783.81;5111353;28;20481;-75
2023/04/22 00:22:17;;;;;;;3.97;1.50;;;;;;;5.58;56.92;101780.34;5111480;28;20126;-75
2023/04/22 00:24:45;;;;;;;4.78;0.60;;;;;;;5.55;56.93;101781.16;5111085;28;20057;-76
2023/04/22 00:27:12;;;;;;;1.52;0.65;;;;;;;5.54;56.94;101781.13;5115242;27;20051;-75
2023/04/22 00:29:39;;;;;;;2.10;0.80;;;;;;;5.51;56.91;101773.28;5109129;28;20054;-75
2023/04/22 00:32:06;;;;;;;3.88;0.50;;;;;;;5.47;57.07;101774.97;5111588;28;20526;-75
2023/04/22 00:34:33;;;;;;;1.67;0.70;;;;;;;5.45;57.17;101779.22;5108272;28;20040;-75
2023/04/22 00:37:00;;;;;;;3.55;0.73;;;;;;;5.42;57.29;101766.22;5111084;27;20757;-76
2023/04/22 00:39:27;;;;;;;1.90;0.68;;;;;;;5.39;57.44;101773.94;5109510;27;20044;-75
2023/04/22 00:41:55;;;;;;;6.22;1.60;;;;;;;5.37;57.43;101770.44;5111048;27;20055;-75
2023/04/22 00:44:23;;;;;;;3.00;0.95;;;;;;;5.35;57.20;101765.25;5109708;27;20040;-76
2023/04/22 00:46:50;;;;;;;1.77;0.85;;;;;;;5.32;57.54;101765.19;5107948;28;20052;-75
2023/04/22 00:49:19;;;;;;;6.25;1.15;;;;;;;5.29;57.71;101761.66;5107457;27;20468;-75
2023/04/22 00:51:46;;;;;;;2.35;0.65;;;;;;;5.26;57.51;101753.81;5107484;28;20504;-75
2023/04/22 00:54:13;;;;;;;2.35;1.05;;;;;;;5.26;57.68;101761.59;5108253;28;20744;-75
2023/04/22 00:56:40;;;;;;;1.50;0.70;;;;;;;5.23;57.78;101753.75;5110989;27;20052;-76
2023/04/22 00:59:09;;;;;;;1.88;0.77;;;;;;;5.21;57.58;101752.84;5109793;28;20077;-76
2023/04/22 01:01:36;;;;;;;1.70;0.60;;;;;;;5.18;57.65;101751.97;5111537;27;20047;-75
2023/04/22 01:04:05;;;;;;;3.22;1.00;;;;;;;5.16;57.57;101753.66;5108740;28;20776;-75
2023/04/22 01:06:33;;;;;;;0.80;0.70;;;;;;;5.13;57.43;101758.78;5109887;28;20036;-75
2023/04/22 01:09:00;;;;;;;3.17;0.80;;;;;;;5.11;57.88;101750.09;5109258;27;20043;-76
2023/04/22 01:11:27;;;;;;;1.40;0.70;;;;;;;5.09;58.04;101745.72;5106564;28;20046;-75
2023/04/22 01:13:54;;;;;;;1.10;0.73;;;;;;;5.06;57.81;101746.53;5112364;27;20408;-76
2023/04/22 01:16:24;;;;;;;7.18;1.02;;;;;;;5.05;58.23;101749.09;5110676;27;20056;-76
2023/04/22 01:18:51;;;;;;;3.60;1.05;;;;;;;5.02;58.21;101743.88;5107592;28;20043;-76
2023/04/22 01:21:19;;;;;;;2.20;0.80;;;;;;;4.99;57.76;101739.50;5111743;27;20076;-75
2023/04/22 01:23:47;;;;;;;3.38;0.60;;;;;;;4.98;58.14;101742.94;5108506;27;20043;-75
2023/04/22 01:26:14;;;;;;;8.02;0.80;;;;;;;4.97;58.15;101741.19;5113606;27;20073;-75
2023/04/22 01:28:42;;;;;;;2.33;1.17;;;;;;;4.95;58.08;101740.25;5110041;27;20051;-79
2023/04/22 01:31:09;;;;;;;2.35;1.10;;;;;;;4.92;58.14;101732.44;5110194;27;20047;-76
2023/04/22 01:33:36;;;;;;;3.05;0.88;;;;;;;4.90;58.19;101729.84;5111343;27;20130;-75
2023/04/22 01:36:03;;;;;;;2.25;0.95;;;;;;;4.88;58.21;101730.63;5111086;27;20516;-75
2023/04/22 01:38:32;;;;;;;2.80;0.60;;;;;;;4.87;58.50;101728.91;5112867;27;20062;-76
2023/04/22 01:41:01;;;;;;;1.08;0.60;;;;;;;4.85;58.60;101725.41;5106054;27;20059;-75
2023/04/22 01:43:29;;;;;;;3.35;0.85;;;;;;;4.83;58.13;101724.50;5112866;27;20051;-76
2023/04/22 01:45:56;;;;;;;2.00;0.75;;;;;;;4.80;58.57;101727.03;5108344;28;20924;-75
2023/04/22 01:48:23;;;;;;;1.10;0.70;;;;;;;4.78;58.16;101715.75;5107814;28;20499;-75
2023/04/22 01:50:50;;;;;;;9.82;0.85;;;;;;;4.76;58.67;101718.31;5110349;28;20044;-75
2023/04/22 01:53:17;;;;;;;1.33;0.80;;;;;;;4.72;58.68;101713.91;5109934;28;20046;-75
2023/04/22 01:55:44;;;;;;;1.40;0.52;;;;;;;4.71;58.18;101720.81;5110334;28;20400;-75
2023/04/22 01:58:13;;;;;;;1.80;0.57;;;;;;;4.69;58.51;101714.72;5109597;28;20043;-76
2023/04/22 02:00:40;;;;;;;3.90;0.90;;;;;;;4.68;58.63;101715.56;5112037;27;20055;-75
2023/04/22 02:03:07;;;;;;;3.35;0.80;;;;;;;4.67;58.60;101710.38;5105329;28;20385;-75
2023/04/22 02:05:33;;;;;;;3.33;0.70;;;;;;;4.64;58.82;101710.28;5098855;28;20066;-75
2023/04/22 02:08:00;;;;;;;1.40;0.75;;;;;;;4.62;58.93;101710.28;5103504;28;20040;-76
2023/04/22 02:10:27;;;;;;;2.38;0.82;;;;;;;4.59;58.41;101702.44;5108988;28;20054;-75
2023/04/22 02:12:54;;;;;;;2.47;0.60;;;;;;;4.58;58.78;101705.88;5109113;28;20047;-75
2023/04/22 02:15:22;;;;;;;2.88;0.80;;;;;;;4.57;59.00;101698.94;5108501;28;20047;-76
2023/04/22 02:17:49;;;;;;;1.70;0.70;;;;;;;4.55;58.81;101692.00;5107847;27;20418;-76
2023/04/22 02:20:16;;;;;;;3.28;0.70;;;;;;;4.54;58.56;101693.72;5103584;28;20092;-75
2023/04/22 02:22:44;;;;;;;4.07;0.73;;;;;;;4.50;59.11;101689.31;5111260;28;20058;-78
2023/04/22 02:25:12;;;;;;;2.15;1.45;;;;;;;4.49;58.96;101685.84;5113246;28;20044;-77
2023/04/22 02:27:40;;;;;;;1.77;0.60;;;;;;;4.47;58.87;101686.66;5115056;27;20051;-78
2023/04/22 02:30:08;;;;;;;5.05;0.70;;;;;;;4.47;58.76;101687.53;5113415;27;20045;-78
2023/04/22 02:32:38;;;;;;;3.85;0.70;;;;;;;4.44;58.61;101686.59;5116855;27;20507;-78
2023/04/22 02:35:06;;;;;;;4.60;0.85;;;;;;;4.39;59.13;101685.63;5110395;27;20047;-78
2023/04/22 02:37:33;;;;;;;2.08;0.73;;;;;;;4.36;59.11;101676.09;5107836;28;20050;-78
2023/04/22 02:40:00;;;;;;;1.92;1.02;;;;;;;4.38;58.68;101684.72;5109558;28;20044;-78
2023/04/22 02:42:27;;;;;;;1.80;0.70;;;;;;;4.36;59.27;101682.97;5113827;28;20042;-78
2023/04/22 02:44:54;;;;;;;3.30;0.73;;;;;;;4.35;59.29;101681.22;5119758;27;20039;-78
2023/04/22 02:47:21;;;;;;;1.20;0.77;;;;;;;4.32;59.12;101673.41;5114123;28;20039;-77
2023/04/22 02:49:49;;;;;;;2.72;0.70;;;;;;;4.29;58.87;101671.63;5118507;27;20555;-78
2023/04/22 02:52:16;;;;;;;1.45;0.70;;;;;;;4.29;59.21;101685.41;5109714;28;20048;-77
2023/04/22 02:54:43;;;;;;;3.00;1.15;;;;;;;4.27;59.50;101676.78;5108868;28;20131;-79
2023/04/22 02:57:10;;;;;;;1.08;0.70;;;;;;;4.26;59.12;101671.53;5105171;28;20050;-78
2023/04/22 02:59:37;;;;;;;2.05;0.60;;;;;;;4.23;59.36;101677.53;5117694;27;20051;-78
2023/04/22 03:02:04;;;;;;;2.90;0.52;;;;;;;4.20;58.96;101672.28;5113082;27;20479;-78
2023/04/22 03:04:31;;;;;;;3.47;0.80;;;;;;;4.20;59.03;101669.69;5112708;27;20496;-78
2023/04/22 03:06:59;;;;;;;3.72;0.77;;;;;;;4.19;59.17;101667.09;5113956;27;20048;-78
2023/04/22 03:09:26;;;;;;;1.60;0.82;;;;;;;4.17;59.51;101663.59;5110438;27;20047;-78
2023/04/22 03:11:53;;;;;;;3.95;0.90;;;;;;;4.16;59.33;101670.50;5121418;27;20483;-78
2023/04/22 03:14:20;;;;;;;1.17;0.80;;;;;;;4.15;59.41;101666.13;5114948;27;20389;-78
2023/04/22 03:16:46;;;;;;;2.35;0.85;;;;;;;4.14;59.42;101666.13;5113877;27;20371;-78
2023/04/22 03:19:13;;;;;;;3.30;0.85;;;;;;;4.11;59.74;101661.75;5120056;27;20381;-77
2023/04/22 03:21:40;;;;;;;2.22;0.80;;;;;;;4.10;59.32;101667.78;5113201;27;20055;-78
2023/04/22 03:24:08;;;;;;;3.90;0.65;;;;;;;4.10;59.42;101659.09;5113114;28;20040;-78
2023/04/22 03:26:35;;;;;;;3.92;0.68;;;;;;;4.08;59.91;101661.69;5112545;28;20053;-78
2023/04/22 03:29:02;;;;;;;1.75;0.90;;;;;;;4.06;60.38;101658.19;5108663;28;20048;-78
2023/04/22 03:31:29;;;;;;;2.05;0.80;;;;;;;4.06;60.09;101663.34;5118583;27;20079;-78
2023/04/22 03:33:56;;;;;;;6.05;0.65;;;;;;;4.05;59.69;101656.44;5113540;27;20468;-78
2023/04/22 03:36:23;;;;;;;3.13;0.93;;;;;;;4.04;59.78;101655.56;5125594;27;20061;-77
2023/04/22 03:38:50;;;;;;;2.65;0.90;;;;;;;4.04;60.26;101649.50;5109838;28;20061;-78
2023/04/22 03:41:18;;;;;;;2.58;0.70;;;;;;;4.04;60.59;101644.34;5123496;27;20045;-78
2023/04/22 03:43:45;;;;;;;2.17;0.68;;;;;;;4.03;60.42;101646.06;5107430;28;20044;-78
2023/04/22 03:46:12;;;;;;;1.65;0.93;;;;;;;4.03;60.68;101637.44;5114813;27;20050;-79
2023/04/22 03:48:39;;;;;;;0.88;0.60;;;;;;;4.01;60.18;101639.09;5109836;28;20044;-79
2023/04/22 03:51:06;;;;;;;1.52;0.77;;;;;;;4.02;60.85;101635.69;5113755;27;20415;-78
2023/04/22 03:53:32;;;;;;;2.25;0.85;;;;;;;4.02;60.69;101644.31;5109709;28;20111;-78
2023/04/22 03:55:59;;;;;;;3.88;0.85;;;;;;;4.02;60.65;101636.56;5113932;28;20039;-78
2023/04/22 03:58:28;;;;;;;2.58;1.10;;;;;;;4.02;60.72;101635.69;5111611;27;20044;-78
2023/04/22 04:00:54;;;;;;;3.33;0.80;;;;;;;4.03;61.15;101635.72;5112845;28;20051;-78
2023/04/22 04:03:21;;;;;;;1.58;0.73;;;;;;;4.03;60.99;101627.94;5115800;28;20059;-78
2023/04/22 04:05:48;;;;;;;1.67;0.70;;;;;;;4.03;60.70;101619.34;5116216;28;20057;-78
2023/04/22 04:08:15;;;;;;;1.30;1.15;;;;;;;4.04;61.39;101621.06;5116296;28;20049;-78
2023/04/22 04:10:42;;;;;;;2.40;1.13;;;;;;;4.04;61.17;101629.72;5107426;28;20097;-78
2023/04/22 04:13:09;;;;;;;1.27;0.90;;;;;;;4.05;61.33;101626.28;5108446;28;20046;-78
2023/04/22 04:15:38;;;;;;;3.33;0.88;;;;;;;4.09;61.27;101616.00;5112669;28;20408;-78
2023/04/22 04:18:05;;;;;;;1.75;0.90;;;;;;;3.92;61.06;101593.25;5121237;28;20040;-78
2023/04/22 04:20:32;;;;;;;1.75;0.95;;;;;;;4.11;61.87;101619.50;5113294;28;20049;-78
2023/04/22 04:22:59;;;;;;;2.28;0.73;;;;;;;4.12;61.48;101616.94;5116157;28;20054;-78
2023/04/22 04:25:28;;;;;;;2.15;1.05;;;;;;;4.14;61.73;101620.44;5111218;28;20044;-78
2023/04/22 04:27:55;;;;;;;3.50;0.98;;;;;;;4.18;61.77;101621.38;5117070;28;20497;-78
2023/04/22 04:30:22;;;;;;;1.30;0.70;;;;;;;4.19;61.60;101624.00;5119222;28;20563;-78
2023/04/22 04:32:51;;;;;;;2.97;0.80;;;;;;;4.22;62.07;101618.88;5117313;28;20043;-79
2023/04/22 04:35:19;;;;;;;6.50;1.40;;;;;;;4.25;62.17;101618.97;5111445;28;20051;-78
2023/04/22 04:37:46;;;;;;;2.10;0.88;;;;;;;4.29;62.38;101618.16;5111059;28;20126;-78
2023/04/22 04:40:13;;;;;;;2.40;1.50;;;;;;;4.34;62.23;101614.81;5112162;28;20048;-78
2023/04/22 04:42:41;;;;;;;3.83;1.02;;;;;;;4.36;62.70;101611.44;5113523;28;20051;-78
2023/04/22 04:45:09;;;;;;;3.08;0.70;;;;;;;4.45;63.00;101615.91;5115271;28;20070;-78
2023/04/22 04:47:36;;;;;;;2.97;1.15;;;;;;;4.51;63.27;101611.72;5113054;28;20043;-79
2023/04/22 04:50:04;;;;;;;4.07;1.05;;;;;;;4.57;63.17;101604.94;5111518;28;20052;-79
2023/04/22 04:52:31;;;;;;;4.25;1.25;;;;;;;4.67;63.18;101606.88;5111330;28;20043;-79
2023/04/22 04:54:58;;;;;;;2.38;0.80;;;;;;;4.76;63.15;101609.63;5103872;28;20101;-79
2023/04/22 04:57:25;;;;;;;1.02;0.70;;;;;;;4.85;63.05;101609.78;5115941;28;20042;-78
2023/04/22 04:59:52;;;;;;;3.00;0.80;;;;;;;4.91;62.98;101602.13;5107987;27;20058;-79
2023/04/22 05:02:19;;;;;;;3.83;0.80;;;;;;;5.06;63.37;101609.28;5116493;27;20044;-79
2023/04/22 05:04:46;;;;;;;1.13;0.88;;;;;;;5.16;63.13;101602.56;5107804;27;20047;-79
2023/04/22 05:07:14;;;;;;;2.95;0.80;;;;;;;5.28;62.99;101607.06;5114694;27;20043;-79
2023/04/22 05:09:41;;;;;;;5.05;0.88;;;;;;;5.38;62.73;101603.78;5106043;27;20046;-79
2023/04/22 05:12:08;;;;;;;1.58;0.77;;;;;;;5.50;62.56;101603.97;5126093;27;20057;-79
2023/04/22 05:14:35;;;;;;;1.00;0.75;;;;;;;5.60;62.19;101600.66;5111527;28;20051;-79
2023/04/22 05:17:03;;;;;;;0.95;0.70;;;;;;;5.71;62.40;101600.81;5119222;27;20052;-79
2023/04/22 05:19:30;;;;;;;3.72;1.05;;;;;;;5.83;62.42;101602.72;5124900;27;20043;-79
2023/04/22 05:21:56;;;;;;;2.92;0.77;;;;;;;5.93;62.28;101598.56;5118868;27;20719;-79
2023/04/22 05:24:25;;;;;;;4.38;0.95;;;;;;;6.03;62.18;101595.25;5124140;27;20866;-79
2023/04/22 05:26:52;;;;;;;2.45;0.80;;;;;;;6.14;61.79;101598.00;5114541;27;20052;-79
2023/04/22 05:29:19;;;;;;;6.30;0.70;;;;;;;6.23;61.51;101591.22;5109410;28;20050;-79
2023/04/22 05:31:46;;;;;;;4.00;0.70;;;;;;;6.32;61.49;101582.66;5121752;27;20388;-79
2023/04/22 05:34:13;;;;;;;5.28;0.80;;;;;;;6.41;61.28;101577.59;5117949;27;20383;-79
2023/04/22 05:36:39;;;;;;;1.02;0.70;;;;;;;6.51;61.03;101582.00;5117950;27;20488;-79
2023/04/22 05:39:06;;;;;;;1.23;0.50;;;;;;;6.60;60.90;101582.97;5113575;28;20047;-79
2023/04/22 05:41:35;;;;;;;1.27;0.70;;;;;;;6.68;60.67;101581.31;5123812;27;20058;-80
2023/04/22 05:44:01;;;;;;;1.90;0.70;;;;;;;6.76;60.36;101574.47;5117302;27;20069;-80
2023/04/22 05:46:28;;;;;;;3.53;0.70;;;;;;;6.84;60.32;101570.25;5113871;28;20048;-79
2023/04/22 05:48:55;;;;;;;0.63;0.40;;;;;;;6.94;60.13;101572.09;5117030;27;20051;-79
2023/04/22 05:51:23;;;;;;;0.63;0.50;;;;;;;7.03;60.01;101565.19;5116659;27;20044;-79
2023/04/22 05:53:50;;;;;;;2.17;0.52;;;;;;;7.12;59.36;101567.91;5115893;27;20096;-79
2023/04/22 05:56:17;;;;;;;4.95;1.58;;;;;;;7.21;59.81;101567.97;5112813;27;20036;-80
2023/04/22 05:58:45;;;;;;;1.83;0.70;;;;;;;7.30;60.08;101559.38;5117276;27;20044;-79
2023/04/22 06:01:12;;;;;;;4.65;0.70;;;;;;;7.38;59.96;101565.50;5105616;27;20044;-79
2023/04/22 06:03:39;;;;;;;0.95;0.60;;;;;;;7.46;60.07;101560.34;5106249;28;20044;-80
2023/04/22 06:06:07;;;;;;;1.27;0.60;;;;;;;7.54;60.21;101550.88;5112239;28;20039;-79
2023/04/22 06:08:34;;;;;;;2.42;0.77;;;;;;;7.62;60.20;101550.06;5119589;27;20051;-79
2023/04/22 06:11:01;;;;;;;0.90;0.60;;;;;;;7.71;59.99;101548.38;5106880;28;20054;-79
2023/04/22 06:13:28;;;;;;;1.42;0.50;;;;;;;7.79;60.16;101546.69;5108323;28;20050;-79
2023/04/22 06:15:56;;;;;;;0.95;0.50;;;;;;;7.87;60.11;101545.00;5108154;28;20706;-77
2023/04/22 06:18:23;;;;;;;4.25;0.70;;;;;;;7.94;60.00;101545.88;5109880;28;20047;-79
2023/04/22 06:20:50;;;;;;;1.85;0.60;;;;;;;8.02;59.54;101544.19;5116983;27;20047;-79
2023/04/22 06:23:17;;;;;;;1.65;0.60;;;;;;;8.10;59.42;101545.09;5111764;28;20055;-79
2023/04/22 06:25:44;;;;;;;2.67;0.70;;;;;;;8.16;59.05;101541.66;5106568;28;20047;-78
2023/04/22 06:28:11;;;;;;;1.92;0.50;;;;;;;8.23;59.39;101541.69;5107162;28;20047;-77
2023/04/22 06:30:37;;;;;;;0.77;0.60;;;;;;;8.28;59.04;101536.47;5110181;28;20043;-77
2023/04/22 06:33:06;;;;;;;2.55;0.45;;;;;;;8.37;58.83;101531.31;5109392;28;20047;-78
2023/04/22 06:35:33;;;;;;;2.40;0.80;;;;;;;8.44;58.70;101534.84;5114141;27;20570;-78
2023/04/22 06:37:59;;;;;;;1.25;0.70;;;;;;;8.50;58.42;101524.44;5098063;27;20048;-78
2023/04/22 06:40:26;;;;;;;5.13;0.70;;;;;;;8.57;58.25;101523.59;5110758;28;20510;-77
2023/04/22 06:42:53;;;;;;;0.80;0.60;;;;;;;8.60;58.55;101513.19;5108934;28;20480;-77
2023/04/22 06:45:20;;;;;;;2.55;0.60;;;;;;;8.70;58.07;101514.91;5110736;27;20051;-78
2023/04/22 06:47:47;;;;;;;1.25;0.73;;;;;;;8.78;58.08;101520.13;5109161;27;20047;-78
2023/04/22 06:50:15;;;;;;;2.03;1.00;;;;;;;8.85;58.22;101519.28;5108433;27;20052;-77
2023/04/22 06:52:42;;;;;;;2.60;0.50;;;;;;;8.93;57.70;101519.28;5113979;27;20044;-78
2023/04/22 06:55:10;;;;;;;0.82;0.60;;;;;;;9.01;57.42;101515.78;5109932;27;20047;-77
2023/04/22 06:57:37;;;;;;;3.75;0.57;;;;;;;9.09;57.18;101513.19;5110298;27;21312;-77
2023/04/22 07:00:04;;;;;;;2.47;0.47;;;;;;;9.18;57.13;101507.97;5106118;28;20443;-78
2023/04/22 07:02:31;;;;;;;6.32;0.70;;;;;;;9.27;56.47;101511.44;5108388;28;20411;-78
2023/04/22 07:04:58;;;;;;;5.97;0.60;;;;;;;9.38;56.32;101502.72;5111368;27;20563;-78
2023/04/22 07:07:26;;;;;;;2.15;0.50;;;;;;;9.51;55.85;101494.91;5111819;27;20732;-78
2023/04/22 07:09:53;;;;;;;2.72;0.93;;;;;;;9.64;56.11;101496.56;5104919;28;20040;-78
2023/04/22 07:12:20;;;;;;;3.72;0.80;;;;;;;9.77;55.50;101486.97;5109852;27;20050;-78
2023/04/22 07:14:49;;;;;;;2.15;0.47;;;;;;;9.89;55.34;101482.56;5110337;27;20058;-78
2023/04/22 07:17:18;;;;;;;2.85;0.60;;;;;;;10.08;55.00;101488.56;5111790;27;20050;-78
2023/04/22 07:19:45;;;;;;;4.45;0.52;;;;;;;10.24;54.41;101481.50;5109420;28;20052;-78
2023/04/22 07:22:12;;;;;;;4.82;0.57;;;;;;;10.44;53.91;101483.19;5110940;27;20059;-80
2023/04/22 07:24:40;;;;;;;0.80;0.60;;;;;;;10.65;53.02;101479.56;5109133;27;20061;-78
2023/04/22 07:27:07;;;;;;;0.85;0.57;;;;;;;10.85;53.38;101477.66;5106419;27;20062;-78
2023/04/22 07:29:34;;;;;;;1.15;0.55;;;;;;;11.10;52.67;101477.41;5108413;27;20051;-78
2023/04/22 07:32:01;;;;;;;5.28;0.75;;;;;;;11.31;52.51;101472.00;5111489;27;20054;-77
2023/04/22 07:34:27;;;;;;;3.60;0.60;;;;;;;11.54;51.96;101470.88;5104764;28;20036;-77
2023/04/22 07:36:54;;;;;;;3.30;0.70;;;;;;;11.79;51.54;101469.72;5107869;28;20058;-74
2023/04/22 07:39:22;;;;;;;2.00;0.40;;;;;;;12.04;50.74;101464.16;5103792;27;20613;-74
2023/04/22 07:41:52;;;;;;;6.50;1.27;;;;;;;12.25;50.68;101453.41;5106463;28;20048;-74
2023/04/22 07:44:20;;;;;;;1.85;0.50;;;;;;;12.47;50.47;101458.34;5103877;27;20044;-74
2023/04/22 07:46:47;;;;;;;4.47;0.68;;;;;;;12.68;49.71;101462.38;5107781;27;20487;-75
2023/04/22 07:49:15;;;;;;;2.25;0.50;;;;;;;12.91;49.22;101446.25;5104811;28;20072;-74
2023/04/22 07:51:42;;;;;;;4.10;0.40;;;;;;;13.17;48.94;101451.03;5108639;28;20558;-74
2023/04/22 07:54:09;;;;;;;2.60;0.40;;;;;;;13.40;48.12;101448.00;5105461;28;20050;-74
2023/04/22 07:56:36;;;;;;;2.58;0.50;;;;;;;13.63;48.25;101445.78;5106101;28;20046;-74
2023/04/22 07:59:04;;;;;;;0.50;0.40;;;;;;;13.82;47.89;101445.41;5105757;28;20044;-74
2023/04/22 08:01:31;;;;;;;0.60;0.40;;;;;;;13.99;47.76;101440.66;5105093;28;20048;-74
2023/04/22 08:03:58;;;;;;;1.58;0.50;;;;;;;14.11;47.65;101442.13;5103167;28;20043;-77
2023/04/22 08:06:26;;;;;;;2.15;0.50;;;;;;;14.29;46.96;101438.25;5106165;28;20040;-77
2023/04/22 08:08:53;;;;;;;1.30;0.50;;;;;;;14.46;46.96;101438.69;5105065;28;20083;-77
2023/04/22 08:11:20;;;;;;;1.60;0.68;;;;;;;14.60;46.71;101431.38;5105553;28;20043;-77
2023/04/22 08:13:47;;;;;;;1.35;0.52;;;;;;;14.75;46.37;101427.50;5103609;28;20400;-76
2023/04/22 08:16:15;;;;;;;0.90;0.50;;;;;;;14.89;45.63;101427.16;5104796;28;20496;-77
2023/04/22 08:18:42;;;;;;;7.28;0.98;;;;;;;15.05;45.69;101417.06;5106425;28;20057;-77
2023/04/22 08:21:09;;;;;;;2.60;0.70;;;;;;;15.17;45.51;101422.00;5100554;28;20055;-79
2023/04/22 08:23:36;;;;;;;0.68;0.57;;;;;;;15.28;45.05;101421.69;5106212;28;20465;-77
2023/04/22 08:26:03;;;;;;;1.13;0.60;;;;;;;15.36;44.79;101417.09;5104577;28;20400;-77
2023/04/22 08:28:30;;;;;;;4.88;0.80;;;;;;;15.46;44.14;101415.94;5103822;28;20043;-77
2023/04/22 08:30:57;;;;;;;2.38;0.70;;;;;;;15.55;43.93;101416.56;5107129;28;20068;-76
2023/04/22 08:33:26;;;;;;;3.70;0.88;;;;;;;15.63;43.53;101409.31;5107813;28;20419;-74
2023/04/22 08:35:53;;;;;;;4.68;0.63;;;;;;;15.69;43.71;101415.28;5111714;28;20046;-74
2023/04/22 08:38:20;;;;;;;1.45;0.50;;;;;;;15.77;43.96;101407.19;5108757;28;20463;-75
2023/04/22 08:40:47;;;;;;;2.55;0.60;;;;;;;15.83;44.14;101403.50;5109288;28;20054;-74
2023/04/22 08:43:15;;;;;;;5.28;0.63;;;;;;;15.91;44.55;101409.41;5111140;28;20050;-74
2023/04/22 08:45:42;;;;;;;2.72;0.52;;;;;;;15.96;44.76;101404.81;5108473;28;20048;-75
2023/04/22 08:48:10;;;;;;;2.90;0.40;;;;;;;15.88;44.55;101376.09;5111089;28;20073;-75
2023/04/22 08:50:39;;;;;;;2.58;0.40;;;;;;;16.08;44.41;101390.41;5110648;27;20047;-75
2023/04/22 08:53:06;;;;;;;2.60;0.45;;;;;;;16.15;44.27;101392.81;5110470;27;20044;-75
2023/04/22 08:55:35;;;;;;;1.48;0.40;;;;;;;16.21;44.48;101388.25;5110707;27;20043;-75
2023/04/22 08:58:04;;;;;;;3.97;0.47;;;;;;;16.25;44.52;101385.47;5111125;27;20048;-76
2023/04/22 09:00:33;;;;;;;3.30;0.43;;;;;;;16.31;44.87;101389.69;5110541;27;20047;-74
2023/04/22 09:03:02;;;;;;;3.85;0.40;;;;;;;16.36;44.17;101379.84;5109269;27;20043;-77
2023/04/22 09:05:32;;;;;;;0.93;0.50;;;;;;;16.41;44.53;101377.91;5113763;27;20066;-74
2023/04/22 09:08:02;;;;;;;3.70;0.43;;;;;;;16.46;43.36;101375.13;5107685;28;20438;-75
2023/04/22 09:10:29;;;;;;;1.38;0.43;;;;;;;16.51;42.45;101365.31;5108063;28;20051;-75
2023/04/22 09:12:57;;;;;;;4.38;0.50;;;;;;;16.55;42.44;101366.91;5110054;27;20167;-75
2023/04/22 09:15:24;;;;;;;3.45;0.82;;;;;;;16.61;42.13;101364.91;5107537;28;20062;-74
2023/04/22 09:17:52;;;;;;;2.50;0.50;;;;;;;16.66;41.92;101362.13;5108605;28;20480;-74
2023/04/22 09:20:19;;;;;;;1.63;0.50;;;;;;;16.72;41.12;101361.91;5107132;28;20062;-74
2023/04/22 09:22:48;;;;;;;1.08;0.30;;;;;;;16.78;40.73;101355.59;5111760;27;20097;-74
2023/04/22 09:25:18;;;;;;;0.98;0.30;;;;;;;16.83;40.51;101351.03;5112236;27;20069;-74
2023/04/22 09:27:49;;;;;;;0.82;0.40;;;;;;;16.89;40.76;101350.81;5109358;27;20050;-75
2023/04/22 09:30:17;;;;;;;2.42;0.45;;;;;;;16.95;40.70;101342.66;5111339;28;20054;-75
2023/04/22 09:32:52;;;;;;;0.90;0.30;;;;;;;16.97;40.92;101330.28;5108364;28;20075;-75
2023/04/22 09:35:25;;;;;;;1.80;0.25;;;;;;;17.06;40.28;101334.38;5109872;28;20406;-74
2023/04/22 09:37:52;;;;;;;1.13;0.30;;;;;;;17.14;39.90;101348.16;5106997;28;20037;-75
2023/04/22 09:40:21;;;;;;;2.05;0.40;;;;;;;17.24;39.76;101346.88;5114206;28;20043;-75
2023/04/22 09:42:49;;;;;;;7.10;0.45;;;;;;;17.29;39.75;101337.00;5112442;27;20043;-76
2023/04/22 09:45:27;;;;;;;6.53;1.95;;;;;;;17.39;39.32;101328.72;5113265;27;20047;-76
2023/04/22 09:47:55;;;;;;;3.28;0.98;;;;;;;17.46;39.44;101324.94;5117175;27;20090;-76
2023/04/22 09:50:25;;;;;;;1.77;0.40;;;;;;;17.54;39.24;101328.16;5109956;28;20047;-77
2023/04/22 09:52:56;;;;;;;3.70;0.45;;;;;;;17.61;39.47;101326.97;5109340;28;20043;-76
2023/04/22 09:55:25;;;;;;;0.90;0.40;;;;;;;17.66;39.36;101327.66;5115811;27;20097;-76
2023/04/22 09:57:54;;;;;;;0.75;0.43;;;;;;;17.69;39.37;101319.63;5113524;27;20043;-79
2023/04/22 10:00:23;;;;;;;2.33;0.40;;;;;;;17.75;39.29;101323.81;5114901;27;20361;-77
2023/04/22 10:02:49;;;;;;;0.90;0.30;;;;;;;17.80;39.23;101326.31;5112678;27;20052;-77
2023/04/22 10:05:18;;;;;;;3.30;0.35;;;;;;;17.83;38.54;101320.91;5117839;27;20128;-76
2023/04/22 10:07:45;;;;;;;1.20;0.30;;;;;;;17.82;38.33;101304.19;5109352;27;20940;-76
2023/04/22 10:10:12;;;;;;;3.65;0.50;;;;;;;17.87;37.87;101311.91;5103640;28;20040;-77
2023/04/22 10:12:40;;;;;;;0.80;0.60;;;;;;;17.94;37.16;101314.25;5109927;28;20135;-86
2023/04/22 10:15:08;;;;;;;2.25;1.13;;;;;;;17.91;37.07;101297.66;5112221;28;20770;-82
2023/04/22 10:17:38;;;;;;;1.00;0.30;;;;;;;18.00;37.31;101299.94;5112604;28;20380;-84
2023/04/22 10:20:12;;;;;;;2.47;0.30;;;;;;;18.01;37.21;101301.63;5119949;27;20047;-85
2023/04/22 10:22:41;;;;;;;1.70;0.30;;;;;;;18.05;37.33;101297.09;5113670;28;20050;-84
2023/04/22 10:25:13;;;;;;;3.03;0.38;;;;;;;18.08;37.06;101294.34;5112971;27;20043;-82
2023/04/22 10:27:42;;;;;;;2.67;0.45;;;;;;;18.10;37.04;101293.34;5103969;28;20051;-84
2023/04/22 10:30:11;;;;;;;0.93;0.30;;;;;;;18.11;37.33;101295.06;5114922;27;20047;-85
2023/04/22 10:32:38;;;;;;;1.05;0.40;;;;;;;18.13;37.09;101292.34;5105298;28;20055;-84
2023/04/22 10:35:15;;;;;;;0.70;0.30;;;;;;;18.15;37.18;101285.22;5103249;28;20058;-87
2023/04/22 10:37:44;;;;;;;3.28;0.40;;;;;;;18.13;36.99;101277.34;5106269;27;20044;-84
2023/04/22 10:40:15;;;;;;;6.72;0.40;;;;;;;18.16;36.81;101277.22;5109969;28;20051;-85
2023/04/22 10:42:48;;;;;;;0.68;0.60;;;;;;;18.14;36.73;101268.50;5112290;28;20052;-82
2023/04/22 10:45:15;;;;;;;1.40;0.52;;;;;;;18.15;36.40;101272.84;5117159;27;20054;-85
2023/04/22 10:47:43;;;;;;;3.85;0.43;;;;;;;18.12;36.15;101272.13;5107521;28;20062;-86
2023/04/22 10:50:32;;;;;;;3.50;0.70;;;;;;;18.11;36.37;101273.91;5124089;27;20621;-85
2023/04/22 10:53:02;;;;;;;2.28;0.35;;;;;;;18.11;36.93;101273.06;5120945;27;20080;-86
2023/04/22 10:55:49;;;;;;;4.85;0.40;;;;;;;18.11;36.58;101265.97;5127334;27;20039;-81
2023/04/22 10:58:22;;;;;;;1.17;0.40;;;;;;;18.08;36.52;101266.09;5121312;27;20046;-83
2023/04/22 11:00:52;;;;;;;3.53;0.43;;;;;;;18.03;36.89;101254.88;5115229;27;20051;-85
2023/04/22 11:03:26;;;;;;;1.73;0.30;;;;;;;18.08;36.25;101249.38;5113245;28;20122;-83
2023/04/22 11:06:13;;;;;;;3.53;0.40;;;;;;;18.09;36.17;101248.47;5117532;27;20047;-85
2023/04/22 11:08:44;;;;;;;1.85;0.25;;;;;;;18.09;35.64;101246.66;5114679;27;20066;-87
2023/04/22 11:11:12;;;;;;;0.47;0.30;;;;;;;18.10;35.75;101240.47;5104800;28;20044;-85
2023/04/22 11:13:42;;;;;;;3.88;0.30;;;;;;;18.10;35.68;101237.84;5110458;28;20051;-86
2023/04/22 11:16:09;;;;;;;1.35;0.40;;;;;;;18.13;35.59;101239.47;5112912;28;20551;-87
2023/04/22 11:18:38;;;;;;;1.10;0.30;;;;;;;18.14;35.50;101228.84;5108001;28;20050;-87
2023/04/22 11:21:07;;;;;;;0.63;0.32;;;;;;;18.13;35.52;101224.47;5115836;27;20203;-83
2023/04/22 11:23:34;;;;;;;0.82;0.30;;;;;;;18.15;35.30;101235.81;5123326;27;20043;-87
2023/04/22 11:26:03;;;;;;;1.15;0.30;;;;;;;18.18;35.52;101232.19;5106907;28;20071;-84
2023/04/22 11:28:30;;;;;;;0.75;0.30;;;;;;;18.20;35.42;101238.28;5116074;27;20044;-87
2023/04/22 11:31:10;;;;;;;1.70;0.40;;;;;;;18.22;35.04;101225.00;5109076;28;20487;-84